createdAt,value
2019-03-26T00:00:02.494Z,48.7
2019-03-26T00:05:02.285Z,48.7
2019-03-26T00:10:02.455Z,48.7
2019-03-26T00:15:02.273Z,48.7
2019-03-26T00:20:02.049Z,48.7
2019-03-26T00:25:01.872Z,48.7
2019-03-26T00:30:01.898Z,48.7
2019-03-26T00:35:01.778Z,48.7
2019-03-26T00:40:02.424Z,48.7
2019-03-26T00:45:02.178Z,48.7
2019-03-26T00:50:02.199Z,48.7
2019-03-26T00:55:02.094Z,48.7
2019-03-26T01:00:02.290Z,48.2
2019-03-26T01:05:02.054Z,48.7
2019-03-26T01:10:01.601Z,48.7
2019-03-26T01:15:01.518Z,48.7
2019-03-26T01:20:01.586Z,48.7
2019-03-26T01:25:01.532Z,47.6
2019-03-26T01:30:02.205Z,48.7
2019-03-26T01:35:02.264Z,48.7
2019-03-26T01:40:01.844Z,48.2
2019-03-26T01:45:01.952Z,48.2
2019-03-26T01:50:01.555Z,48.7
2019-03-26T01:55:01.521Z,48.2
2019-03-26T02:00:01.582Z,48.2
2019-03-26T02:05:02.428Z,48.2
2019-03-26T02:10:01.962Z,48.7
2019-03-26T02:15:02.075Z,48.2
2019-03-26T02:20:01.669Z,47.6
2019-03-26T02:25:01.583Z,48.2
2019-03-26T02:30:01.661Z,47.6
2019-03-26T02:35:16.623Z,47.6
2019-03-26T02:40:01.837Z,47.1
2019-03-26T02:45:01.902Z,47.6
2019-03-26T02:50:01.975Z,47.6
2019-03-26T02:55:01.950Z,47.1
2019-03-26T03:00:01.622Z,47.1
2019-03-26T03:05:01.731Z,47.6
2019-03-26T03:10:02.246Z,47.6
2019-03-26T03:15:02.376Z,47.6
2019-03-26T03:20:01.533Z,47.6
2019-03-26T03:25:01.521Z,47.6
2019-03-26T03:30:02.250Z,47.6
2019-03-26T03:35:02.197Z,47.6
2019-03-26T03:40:01.895Z,47.6
2019-03-26T03:45:01.724Z,47.6
2019-03-26T03:50:01.844Z,47.6
2019-03-26T03:55:01.756Z,47.6
2019-03-26T04:00:02.612Z,47.6
2019-03-26T04:05:02.504Z,47.6
2019-03-26T04:10:01.600Z,47.6
2019-03-26T04:15:02.482Z,48.2
2019-03-26T04:20:01.657Z,47.6
2019-03-26T04:25:01.679Z,47.6
2019-03-26T04:30:01.862Z,48.2
2019-03-26T04:35:02.495Z,48.2
2019-03-26T04:40:02.478Z,47.6
2019-03-26T04:45:02.356Z,47.6
2019-03-26T04:50:01.813Z,48.2
2019-03-26T04:55:01.731Z,47.6
2019-03-26T05:00:02.048Z,47.6
2019-03-26T05:05:01.905Z,47.1
2019-03-26T05:10:02.229Z,47.1
2019-03-26T05:15:01.999Z,46.5
2019-03-26T05:20:02.097Z,45.5
2019-03-26T05:25:01.972Z,44.4
2019-03-26T05:30:02.001Z,44.4
2019-03-26T05:35:02.026Z,45.5
2019-03-26T05:40:01.656Z,45.5
2019-03-26T05:45:02.414Z,45.5
2019-03-26T05:50:02.382Z,46
2019-03-26T05:55:02.406Z,45.5
2019-03-26T06:00:01.979Z,46
2019-03-26T06:05:01.699Z,45.5
2019-03-26T06:10:01.651Z,46
2019-03-26T06:15:01.555Z,46.5
2019-03-26T06:20:01.615Z,46.5
2019-03-26T06:25:02.519Z,46.5
2019-03-26T06:30:02.459Z,47.1
2019-03-26T06:35:02.270Z,47.6
2019-03-26T06:40:02.344Z,47.1
2019-03-26T06:45:02.333Z,46.5
2019-03-26T06:50:01.961Z,46.5
2019-03-26T06:55:01.887Z,46
2019-03-26T07:00:01.906Z,47.6
2019-03-26T07:05:01.765Z,47.6
2019-03-26T07:10:02.271Z,48.2
2019-03-26T07:15:02.162Z,48.2
2019-03-26T07:20:02.246Z,47.1
2019-03-26T07:25:01.956Z,47.1
2019-03-26T07:30:02.579Z,47.6
2019-03-26T07:35:02.431Z,48.2
2019-03-26T07:40:02.151Z,48.2
2019-03-26T07:45:02.190Z,48.7
2019-03-26T07:50:01.636Z,47.6
2019-03-26T07:55:01.569Z,47.6
2019-03-26T08:00:02.096Z,47.1
2019-03-26T08:05:02.099Z,48.2
2019-03-26T08:10:01.935Z,47.6
2019-03-26T08:15:01.679Z,48.7
2019-03-26T08:20:01.802Z,48.2
2019-03-26T08:25:01.838Z,48.7
2019-03-26T08:30:02.217Z,49.2
2019-03-26T08:35:02.198Z,48.7
2019-03-26T08:40:01.573Z,48.2
2019-03-26T08:45:02.526Z,48.7
2019-03-26T08:50:02.126Z,48.7
2019-03-26T08:55:04.302Z,48.7
2019-03-26T09:00:01.808Z,48.7
2019-03-26T09:05:01.799Z,48.2
2019-03-26T09:10:02.172Z,49.2
2019-03-26T09:15:01.935Z,47.6
2019-03-26T09:20:02.184Z,48.7
2019-03-26T09:25:02.051Z,48.7
2019-03-26T09:30:01.662Z,49.2
2019-03-26T09:35:01.575Z,49.8
2019-03-26T09:40:02.062Z,49.2
2019-03-26T09:45:01.996Z,49.8
2019-03-26T09:50:01.644Z,49.2
2019-03-26T09:55:02.451Z,48.7
2019-03-26T10:00:02.498Z,48.7
2019-03-26T10:05:02.393Z,49.2
2019-03-26T10:10:02.095Z,49.2
2019-03-26T10:15:02.024Z,48.7
2019-03-26T10:20:02.099Z,49.8
2019-03-26T10:25:01.573Z,49.2
2019-03-26T10:30:02.060Z,49.8
2019-03-26T10:35:02.045Z,49.8
2019-03-26T10:40:01.975Z,50.3
2019-03-26T10:45:01.885Z,49.2
2019-03-26T10:50:01.884Z,49.8
2019-03-26T10:55:01.795Z,49.8
2019-03-26T11:00:02.000Z,50.3
2019-03-26T11:05:01.909Z,49.8
2019-03-26T11:10:01.900Z,49.8
2019-03-26T11:15:01.835Z,50.8
2019-03-26T11:20:01.940Z,49.8
2019-03-26T11:25:01.816Z,49.8
2019-03-26T11:30:01.981Z,50.8
2019-03-26T11:35:01.754Z,50.3
2019-03-26T11:40:02.531Z,50.8
2019-03-26T11:45:01.889Z,50.3
2019-03-26T11:50:04.654Z,50.8
2019-03-26T11:55:01.879Z,50.3
2019-03-26T12:00:01.809Z,50.8
2019-03-26T12:05:01.894Z,50.8
2019-03-26T12:10:02.018Z,50.8
2019-03-26T12:15:01.835Z,50.8
2019-03-26T12:20:01.936Z,50.8
2019-03-26T12:25:01.902Z,50.8
2019-03-26T12:30:02.449Z,50.8
2019-03-26T12:35:02.358Z,50.8
2019-03-26T12:40:02.427Z,50.8
2019-03-26T12:45:02.314Z,51.4
2019-03-26T12:50:01.561Z,50.8
2019-03-26T12:55:01.538Z,51.4
2019-03-26T13:00:01.861Z,50.8
2019-03-26T13:05:01.952Z,49.2
2019-03-26T13:10:12.595Z,48.7
2019-03-26T13:15:02.289Z,49.2
2019-03-26T13:20:02.633Z,48.7
2019-03-26T13:25:02.395Z,48.7
2019-03-26T13:30:02.007Z,49.8
2019-03-26T13:35:01.910Z,48.7
2019-03-26T13:40:01.865Z,48.7
2019-03-26T13:45:02.198Z,50.3
2019-03-26T13:50:01.971Z,50.8
2019-03-26T13:55:01.875Z,50.8
2019-03-26T14:00:01.900Z,51.9
2019-03-26T14:05:01.833Z,50.8
2019-03-26T14:10:02.371Z,50.3
2019-03-26T14:15:02.313Z,50.8
2019-03-26T14:20:02.591Z,49.2
2019-03-26T14:25:02.460Z,50.8
2019-03-26T14:30:01.961Z,51.4
2019-03-26T14:35:01.899Z,51.4
2019-03-26T14:40:02.398Z,50.8
2019-03-26T14:45:02.399Z,51.4
2019-03-26T14:50:01.978Z,50.8
2019-03-26T14:55:01.928Z,49.8
2019-03-26T15:00:02.474Z,50.8
2019-03-26T15:05:02.508Z,50.8
2019-03-26T15:10:01.513Z,50.8
2019-03-26T15:15:02.502Z,50.8
2019-03-26T15:20:02.504Z,50.8
2019-03-26T15:25:02.440Z,50.3
2019-03-26T15:30:02.408Z,50.3
2019-03-26T15:35:02.249Z,51.4
2019-03-26T15:40:01.794Z,49.8
2019-03-26T15:45:01.760Z,50.3
2019-03-26T15:50:02.376Z,50.8
2019-03-26T15:55:02.352Z,50.8
2019-03-26T16:00:02.358Z,51.4
2019-03-26T16:05:02.361Z,50.8
2019-03-26T16:10:01.915Z,50.8
2019-03-26T16:15:01.963Z,50.3
2019-03-26T16:20:02.074Z,50.8
2019-03-26T16:25:02.126Z,51.4
2019-03-26T16:30:02.325Z,50.8
2019-03-26T16:35:02.150Z,51.4
2019-03-26T16:40:02.093Z,50.8
2019-03-26T16:45:01.911Z,50.8
2019-03-26T16:50:01.872Z,51.9
2019-03-26T16:55:02.031Z,50.8
2019-03-26T17:00:02.092Z,50.8
2019-03-26T17:05:02.032Z,50.8
2019-03-26T17:10:02.085Z,50.3
2019-03-26T17:15:02.093Z,50.3
2019-03-26T17:20:01.723Z,50.8
2019-03-26T17:25:02.399Z,50.8
2019-03-26T17:30:01.673Z,50.3
2019-03-26T17:35:02.414Z,50.3
2019-03-26T17:40:01.680Z,50.8
2019-03-26T17:45:01.503Z,50.8
2019-03-26T17:50:02.128Z,49.8
2019-03-26T17:55:02.176Z,50.8
2019-03-26T18:00:02.259Z,50.8
2019-03-26T18:05:02.237Z,50.8
2019-03-26T18:10:01.793Z,50.8
2019-03-26T18:15:01.659Z,50.8
2019-03-26T18:20:01.738Z,50.8
2019-03-26T18:25:02.052Z,51.4
2019-03-26T18:30:02.190Z,51.4
2019-03-26T18:35:01.964Z,50.8
2019-03-26T18:40:02.333Z,50.8
2019-03-26T18:45:02.365Z,50.8
2019-03-26T18:50:02.188Z,50.3
2019-03-26T18:55:01.940Z,50.8
2019-03-26T19:00:02.408Z,50.3
2019-03-26T19:05:02.096Z,50.8
2019-03-26T19:10:01.687Z,50.8
2019-03-26T19:15:01.612Z,49.8
2019-03-26T19:20:02.338Z,50.3
2019-03-26T19:25:02.157Z,49.8
2019-03-26T19:30:02.357Z,50.3
2019-03-26T19:35:02.133Z,49.8
2019-03-26T19:40:01.792Z,49.8
2019-03-26T19:45:01.842Z,49.8
2019-03-26T19:50:01.995Z,50.8
2019-03-26T19:55:02.438Z,50.8
2019-03-26T20:00:02.344Z,50.3
2019-03-26T20:05:02.317Z,50.8
2019-03-26T20:10:02.458Z,50.3
2019-03-26T20:15:01.868Z,49.8
2019-03-26T20:20:01.986Z,49.8
2019-03-26T20:25:01.887Z,50.3
2019-03-26T20:30:01.989Z,50.8
2019-03-26T20:35:01.836Z,49.8
2019-03-26T20:40:02.428Z,49.8
2019-03-26T20:45:02.345Z,49.8
2019-03-26T20:50:02.460Z,49.8
2019-03-26T20:55:02.243Z,49.8
2019-03-26T21:00:01.815Z,49.8
2019-03-26T21:05:01.663Z,49.8
2019-03-26T21:10:01.735Z,49.8
2019-03-26T21:15:01.678Z,49.2
2019-03-26T21:20:01.843Z,49.2
2019-03-26T21:25:01.610Z,49.8
2019-03-26T21:30:10.393Z,49.8
2019-03-26T21:35:01.520Z,50.3
2019-03-26T21:40:02.108Z,49.8
2019-03-26T21:45:01.999Z,50.3
2019-03-26T21:50:02.490Z,49.8
2019-03-26T21:55:02.403Z,49.8
2019-03-26T22:00:02.037Z,50.3
2019-03-26T22:05:02.056Z,50.3
2019-03-26T22:10:02.481Z,50.8
2019-03-26T22:15:01.647Z,50.8
2019-03-26T22:20:01.737Z,50.3
2019-03-26T22:25:01.743Z,49.8
2019-03-26T22:30:02.133Z,50.3
2019-03-26T22:35:02.079Z,50.8
2019-03-26T22:40:02.554Z,49.8
2019-03-26T22:45:01.576Z,50.8
2019-03-26T22:50:02.478Z,50.3
2019-03-26T22:55:02.460Z,50.3
2019-03-26T23:00:02.462Z,50.8
2019-03-26T23:05:02.041Z,50.3
2019-03-26T23:10:02.343Z,50.3
2019-03-26T23:15:02.284Z,50.8
2019-03-26T23:20:02.531Z,50.3
2019-03-26T23:25:02.378Z,50.8
2019-03-26T23:30:02.096Z,50.8
2019-03-26T23:35:02.110Z,50.3
2019-03-26T23:40:02.143Z,50.8
2019-03-26T23:45:02.054Z,50.3
2019-03-26T23:50:01.700Z,50.8
2019-03-26T23:55:01.559Z,50.3
